2019/07/22 03:30 YSSY 220330Z 01005KT CAVOK 23/05 Q1014 NOSIG
2019/07/22 03:30 YMML 220330Z 01022KT 9999 FEW043 13/05 Q1010 FM0330 MOD/SEV TURB BLW 5000FT
2019/07/22 03:30 YSCB 220330Z AUTO 35013KT 9999 // NCD 17/00 Q1014 RMK RF00.0/000.0 NOSIG RMK USE TAF FOR ARRIVALS AFTER 0600Z
2019/07/22 03:35 YPAD 220335Z 35023G33KT CAVOK 17/03 Q1009
2019/07/22 03:30 YPPH 220330Z 17005KT 9999 FEW024 16/10 Q1021 NOSIG
2019/07/22 03:30 YBBN 220330Z 04008KT 9999 FEW035 21/14 Q1017 NOSIG
2019/07/22 03:30 YMHB 220330Z 36014KT 9999 FEW038 SCT052 16/05 Q1002 RF00.0/000.0
2019/07/22 03:30 NZAA 220330Z AUTO 24006KT 9999 NCD 15/11 Q1014 NOSIG
2019/07/22 03:30 NZCH 220330Z AUTO 08009KT 9999 BKN012/// 10/09 Q1014 TEMPO BKN009

Powered by MinhViet JSC.